Terminal Aerodrome Forecast
Issued by NWS Topeka, KS

Home | Current Version | Previous Version | Text Only | Print | Product List | Glossary On
Versions: 1 2 3 4 5 6 7 8 9 10 11 12 13 14 15 16 17 18 19 20
000
FTUS43 KTOP 280500
TAFTOP
TAF
KTOP 280520Z 2806/2906 10004KT P6SM OVC250
      TEMPO 2811/2815 3SM -TSRA BKN035CB
     FM281500 15009KT P6SM SCT040 BKN150
     FM282000 16011KT P6SM VCTS SCT040CB
     FM290200 17006KT P6SM BKN035=

USA.gov is the U.S. government's official web portal to all federal, state and local government web resources and services.